Time;durP1;ratioP1;P1;durP2;ratioP2;P2;SDS_P1;SDS_P2;PMS_P1;PMS_P2;Temp;Humidity;BMP_temperature;BMP_pressure;BME280_temperature;BME280_humidity;BME280_pressure;Samples;Min_cycle;Max_cycle;Signal;HPM_P1;HPM_P2
2023/12/09 00:00:20;;;;;;;71.55;30.10;;;;;;;;;;5009049;28;20052;-73
2023/12/09 00:02:46;;;;;;;75.68;30.08;;;;;;;;;;5003908;28;20042;-72
2023/12/09 00:05:13;;;;;;;69.00;29.15;;;;;;;;;;5003850;28;20054;-67
2023/12/09 00:07:39;;;;;;;63.55;27.98;;;;;;;;;;5005809;28;20514;-68
2023/12/09 00:10:06;;;;;;;72.68;30.13;;;;;;;;;;5013789;28;20052;-73
2023/12/09 00:12:32;;;;;;;75.78;30.63;;;;;;;;;;5002812;28;20061;-74
2023/12/09 00:14:59;;;;;;;72.43;28.73;;;;;;;;;;5008041;28;20073;-71
2023/12/09 00:17:26;;;;;;;72.25;31.25;;;;;;;;;;5006677;28;20050;-74
2023/12/09 00:19:52;;;;;;;68.22;30.08;;;;;;;;;;5007732;28;20045;-74
2023/12/09 00:22:19;;;;;;;74.95;31.52;;;;;;;;;;5003082;28;20096;-73
2023/12/09 00:24:45;;;;;;;69.90;31.55;;;;;;;;;;5008980;28;20123;-71
2023/12/09 00:27:11;;;;;;;71.88;31.00;;;;;;;;;;5003986;28;20046;-72
2023/12/09 00:29:38;;;;;;;74.32;29.58;;;;;;;;;;5008932;28;20078;-69
2023/12/09 00:32:05;;;;;;;67.93;30.23;;;;;;;;;;5005376;28;20204;-71
2023/12/09 00:34:31;;;;;;;72.38;29.42;;;;;;;;;;5013152;28;20135;-69
2023/12/09 00:36:58;;;;;;;69.75;29.67;;;;;;;;;;5005199;28;20042;-69
2023/12/09 00:39:24;;;;;;;75.03;30.20;;;;;;;;;;5005261;28;20490;-70
2023/12/09 00:41:50;;;;;;;69.07;30.90;;;;;;;;;;5003345;28;20050;-71
2023/12/09 00:44:20;;;;;;;78.93;31.55;;;;;;;;;;5002916;28;20050;-69
2023/12/09 00:46:47;;;;;;;73.07;30.27;;;;;;;;;;5007251;28;20502;-72
2023/12/09 00:49:14;;;;;;;71.03;31.10;;;;;;;;;;4999232;28;20054;-71
2023/12/09 00:51:40;;;;;;;73.22;31.92;;;;;;;;;;5004354;28;20048;-72
2023/12/09 00:54:07;;;;;;;67.45;28.02;;;;;;;;;;4999753;28;20089;-71
2023/12/09 00:56:33;;;;;;;67.20;28.85;;;;;;;;;;5007446;28;20045;-69
2023/12/09 00:59:01;;;;;;;61.63;28.33;;;;;;;;;;5006745;28;20068;-70
2023/12/09 01:01:27;;;;;;;76.18;28.90;;;;;;;;;;5007481;28;20050;-70
2023/12/09 01:03:54;;;;;;;67.97;30.40;;;;;;;;;;5004115;28;20112;-69
2023/12/09 01:06:21;;;;;;;68.80;28.67;;;;;;;;;;5004293;28;20137;-71
2023/12/09 01:08:47;;;;;;;88.22;29.10;;;;;;;;;;5006734;28;20053;-69
2023/12/09 01:11:14;;;;;;;65.63;29.48;;;;;;;;;;5005153;28;20120;-70
2023/12/09 01:13:40;;;;;;;70.45;28.77;;;;;;;;;;5008231;28;20077;-71
2023/12/09 01:16:07;;;;;;;67.90;29.55;;;;;;;;;;5005858;28;20105;-71
2023/12/09 01:18:34;;;;;;;69.18;30.67;;;;;;;;;;5007388;28;20140;-69
2023/12/09 01:21:00;;;;;;;59.17;26.60;;;;;;;;;;5005108;28;20054;-72
2023/12/09 01:23:27;;;;;;;71.97;30.92;;;;;;;;;;4998267;28;20038;-71
2023/12/09 01:25:53;;;;;;;67.45;30.63;;;;;;;;;;4995342;28;20054;-71
2023/12/09 01:28:19;;;;;;;72.97;28.95;;;;;;;;;;5007062;28;20038;-74
2023/12/09 01:30:46;;;;;;;70.32;31.45;;;;;;;;;;5005920;28;20112;-76
2023/12/09 01:33:12;;;;;;;76.15;30.20;;;;;;;;;;5007246;28;20466;-76
2023/12/09 01:35:39;;;;;;;74.03;30.75;;;;;;;;;;5007361;28;20575;-72
2023/12/09 01:38:05;;;;;;;69.75;29.83;;;;;;;;;;5006768;28;20116;-72
2023/12/09 01:40:32;;;;;;;63.60;26.65;;;;;;;;;;5006746;28;20041;-71
2023/12/09 01:42:58;;;;;;;71.10;30.98;;;;;;;;;;5006778;28;20069;-72
2023/12/09 01:45:25;;;;;;;67.53;29.38;;;;;;;;;;5006857;28;20554;-70
2023/12/09 01:47:51;;;;;;;64.38;27.92;;;;;;;;;;5006562;28;20682;-70
2023/12/09 01:50:18;;;;;;;65.65;28.55;;;;;;;;;;5006715;28;20046;-71
2023/12/09 01:52:45;;;;;;;67.10;28.77;;;;;;;;;;5006979;28;20071;-70
2023/12/09 01:55:12;;;;;;;60.63;27.55;;;;;;;;;;5005752;28;20058;-69
2023/12/09 01:57:39;;;;;;;63.47;30.58;;;;;;;;;;5007124;28;20049;-74
2023/12/09 02:00:06;;;;;;;70.53;30.15;;;;;;;;;;5008046;28;20042;-75
2023/12/09 02:02:33;;;;;;;76.10;31.23;;;;;;;;;;5008745;28;20073;-70
2023/12/09 02:05:00;;;;;;;72.18;30.17;;;;;;;;;;5006627;28;20057;-69
2023/12/09 02:07:27;;;;;;;65.85;29.63;;;;;;;;;;5008103;28;20048;-70
2023/12/09 02:09:54;;;;;;;77.40;31.13;;;;;;;;;;5008622;28;20437;-69
2023/12/09 02:12:26;;;;;;;81.45;36.50;;;;;;;;;;5007655;28;20066;-69
2023/12/09 02:14:57;;;;;;;66.50;28.85;;;;;;;;;;5010319;28;20042;-72
2023/12/09 02:17:31;;;;;;;71.90;31.20;;;;;;;;;;5009367;28;20549;-68
2023/12/09 02:19:58;;;;;;;66.07;30.02;;;;;;;;;;5008678;28;20046;-68
2023/12/09 02:22:25;;;;;;;66.00;30.15;;;;;;;;;;5008216;28;20042;-71
2023/12/09 02:24:52;;;;;;;75.45;31.85;;;;;;;;;;5007008;28;20522;-67
2023/12/09 02:27:21;;;;;;;71.45;31.58;;;;;;;;;;5007277;28;20054;-69
2023/12/09 02:29:54;;;;;;;74.55;31.58;;;;;;;;;;5007957;28;20042;-68
2023/12/09 02:32:23;;;;;;;75.78;30.73;;;;;;;;;;5008252;28;20050;-68
2023/12/09 02:34:51;;;;;;;75.97;31.20;;;;;;;;;;5009590;28;20081;-68
2023/12/09 02:37:19;;;;;;;67.00;29.90;;;;;;;;;;5007002;28;20168;-70
2023/12/09 02:39:46;;;;;;;84.55;33.00;;;;;;;;;;5007810;28;20598;-69
2023/12/09 02:42:13;;;;;;;69.32;30.25;;;;;;;;;;5007598;28;20046;-69
2023/12/09 02:44:42;;;;;;;74.97;32.80;;;;;;;;;;5007502;28;20485;-69
2023/12/09 02:47:13;;;;;;;75.18;32.58;;;;;;;;;;5007417;28;20054;-68
2023/12/09 02:49:40;;;;;;;77.05;33.20;;;;;;;;;;5007916;28;20046;-68
2023/12/09 02:52:07;;;;;;;72.70;32.55;;;;;;;;;;5007498;28;20442;-68
2023/12/09 02:54:33;;;;;;;76.80;34.13;;;;;;;;;;5006773;28;20681;-69
2023/12/09 02:57:00;;;;;;;73.45;30.50;;;;;;;;;;5012595;28;20489;-69
2023/12/09 02:59:28;;;;;;;86.45;34.97;;;;;;;;;;5012355;28;20049;-68
2023/12/09 03:01:55;;;;;;;70.35;30.30;;;;;;;;;;5011145;28;20050;-68
2023/12/09 03:04:21;;;;;;;69.55;30.15;;;;;;;;;;5011059;28;20045;-68
2023/12/09 03:06:47;;;;;;;86.88;33.88;;;;;;;;;;5010931;28;20581;-72
2023/12/09 03:09:14;;;;;;;79.55;33.20;;;;;;;;;;5011414;28;20502;-70
2023/12/09 03:11:40;;;;;;;81.22;32.50;;;;;;;;;;5007698;28;20491;-69
2023/12/09 03:14:07;;;;;;;81.28;34.00;;;;;;;;;;5001572;28;20513;-68
2023/12/09 03:16:36;;;;;;;84.18;32.65;;;;;;;;;;5011150;28;20053;-69
2023/12/09 03:19:02;;;;;;;80.05;32.67;;;;;;;;;;5003328;28;20053;-68
2023/12/09 03:21:29;;;;;;;74.70;32.85;;;;;;;;;;5012061;28;20046;-74
2023/12/09 03:23:55;;;;;;;84.47;34.58;;;;;;;;;;5011622;28;20050;-68
2023/12/09 03:26:23;;;;;;;80.97;33.97;;;;;;;;;;5009591;28;20637;-68
2023/12/09 03:28:50;;;;;;;76.13;31.30;;;;;;;;;;5010924;28;20139;-68
2023/12/09 03:31:16;;;;;;;74.63;33.17;;;;;;;;;;5010068;28;20058;-73
2023/12/09 03:33:42;;;;;;;92.43;33.05;;;;;;;;;;5010826;28;20050;-68
2023/12/09 03:36:10;;;;;;;94.20;35.00;;;;;;;;;;5002476;28;20129;-69
2023/12/09 03:38:36;;;;;;;86.95;33.97;;;;;;;;;;5004001;28;20494;-68
2023/12/09 03:41:03;;;;;;;91.32;37.13;;;;;;;;;;5009779;28;20453;-70
2023/12/09 03:43:30;;;;;;;94.68;35.63;;;;;;;;;;5007069;28;20049;-69
2023/12/09 03:45:58;;;;;;;88.63;35.45;;;;;;;;;;5011504;28;20073;-70
2023/12/09 03:48:28;;;;;;;93.90;35.28;;;;;;;;;;5010388;28;20663;-68
2023/12/09 03:50:55;;;;;;;96.07;35.47;;;;;;;;;;5009884;28;20038;-70
2023/12/09 03:53:21;;;;;;;101.05;35.95;;;;;;;;;;5010165;28;20050;-68
2023/12/09 03:55:49;;;;;;;98.15;37.85;;;;;;;;;;5008883;28;20046;-68
2023/12/09 03:58:15;;;;;;;96.60;35.55;;;;;;;;;;5005422;28;20046;-69
2023/12/09 04:00:42;;;;;;;93.05;33.60;;;;;;;;;;4999796;28;20495;-69
2023/12/09 04:03:08;;;;;;;87.07;34.95;;;;;;;;;;5009757;28;20049;-69
2023/12/09 04:05:35;;;;;;;100.10;36.50;;;;;;;;;;5009526;28;20049;-71
2023/12/09 04:08:01;;;;;;;102.28;36.90;;;;;;;;;;5009789;28;20537;-68
2023/12/09 04:10:28;;;;;;;93.35;36.58;;;;;;;;;;5009445;28;20386;-68
2023/12/09 04:12:54;;;;;;;98.20;34.90;;;;;;;;;;5009727;28;20449;-68
2023/12/09 04:15:21;;;;;;;103.32;37.33;;;;;;;;;;5009262;28;20045;-69
2023/12/09 04:17:47;;;;;;;92.55;35.78;;;;;;;;;;5009455;28;20129;-68
2023/12/09 04:20:14;;;;;;;92.85;38.25;;;;;;;;;;5008764;28;20050;-69
2023/12/09 04:22:40;;;;;;;95.32;37.38;;;;;;;;;;5009991;28;20065;-70
2023/12/09 04:25:07;;;;;;;106.57;38.55;;;;;;;;;;5008796;28;20072;-69
2023/12/09 04:27:34;;;;;;;123.63;41.10;;;;;;;;;;5006982;28;20085;-70
2023/12/09 04:30:01;;;;;;;112.85;41.47;;;;;;;;;;5009190;28;20050;-69
2023/12/09 04:32:29;;;;;;;112.35;40.33;;;;;;;;;;5009778;28;20757;-68
2023/12/09 04:34:56;;;;;;;107.00;37.95;;;;;;;;;;5009482;28;20557;-69
2023/12/09 04:37:22;;;;;;;115.85;41.63;;;;;;;;;;5003028;28;20108;-68
2023/12/09 04:39:49;;;;;;;114.65;41.22;;;;;;;;;;5010133;28;20050;-70
2023/12/09 04:42:16;;;;;;;132.68;40.30;;;;;;;;;;5013884;28;20073;-68
2023/12/09 04:44:43;;;;;;;99.32;39.20;;;;;;;;;;5009751;28;20138;-68
2023/12/09 04:47:09;;;;;;;102.53;34.95;;;;;;;;;;5009084;28;20049;-69
2023/12/09 04:49:36;;;;;;;107.18;37.58;;;;;;;;;;5009183;28;20527;-69
2023/12/09 04:52:03;;;;;;;106.90;40.80;;;;;;;;;;5007567;28;20049;-69
2023/12/09 04:54:30;;;;;;;105.97;38.25;;;;;;;;;;5009316;28;20061;-67
2023/12/09 04:56:57;;;;;;;102.55;38.65;;;;;;;;;;5008458;28;20053;-68
2023/12/09 04:59:25;;;;;;;111.25;39.78;;;;;;;;;;5008407;28;20101;-67
2023/12/09 05:01:51;;;;;;;113.32;41.00;;;;;;;;;;5009138;28;20072;-69
2023/12/09 05:04:17;;;;;;;103.30;41.67;;;;;;;;;;5008912;28;20112;-68
2023/12/09 05:06:44;;;;;;;117.90;39.75;;;;;;;;;;5007835;28;20438;-69
2023/12/09 05:09:11;;;;;;;125.78;40.72;;;;;;;;;;5008806;28;20121;-70
2023/12/09 05:11:37;;;;;;;113.13;42.15;;;;;;;;;;5006814;28;20061;-70
2023/12/09 05:14:04;;;;;;;118.55;41.42;;;;;;;;;;5008915;28;20088;-68
2023/12/09 05:16:31;;;;;;;111.03;40.00;;;;;;;;;;5008333;28;20069;-69
2023/12/09 05:18:58;;;;;;;119.88;43.80;;;;;;;;;;5008180;28;20125;-68
2023/12/09 05:21:25;;;;;;;132.10;42.40;;;;;;;;;;5008279;28;20078;-67
2023/12/09 05:24:02;;;;;;;111.80;41.78;;;;;;;;;;5008971;28;20057;-67
2023/12/09 05:26:29;;;;;;;127.25;43.28;;;;;;;;;;5008041;28;20487;-70
2023/12/09 05:28:56;;;;;;;115.90;42.55;;;;;;;;;;5007268;28;20077;-69
2023/12/09 05:31:22;;;;;;;116.05;41.15;;;;;;;;;;5008565;28;20107;-69
2023/12/09 05:33:49;;;;;;;123.95;46.13;;;;;;;;;;5008060;28;20042;-67
2023/12/09 05:36:16;;;;;;;111.05;43.50;;;;;;;;;;5008207;28;20069;-67
2023/12/09 05:38:43;;;;;;;126.63;44.85;;;;;;;;;;5008058;28;20453;-68
2023/12/09 05:41:09;;;;;;;117.75;43.67;;;;;;;;;;5009993;28;20046;-69
2023/12/09 05:43:36;;;;;;;117.90;39.05;;;;;;;;;;5011552;28;20053;-69
2023/12/09 05:46:03;;;;;;;120.28;45.45;;;;;;;;;;5008088;28;20127;-69
2023/12/09 05:48:34;;;;;;;115.22;44.10;;;;;;;;;;5008028;28;20462;-68
2023/12/09 05:51:00;;;;;;;132.30;46.28;;;;;;;;;;5007626;28;20679;-68
2023/12/09 05:53:27;;;;;;;111.55;42.95;;;;;;;;;;5007858;28;20050;-68
2023/12/09 05:55:53;;;;;;;123.68;43.65;;;;;;;;;;5008075;28;20128;-68
2023/12/09 05:58:20;;;;;;;116.40;41.25;;;;;;;;;;5007950;28;20046;-69
2023/12/09 06:00:46;;;;;;;118.35;43.75;;;;;;;;;;5006804;28;20104;-68
2023/12/09 06:03:13;;;;;;;114.03;42.58;;;;;;;;;;5008131;28;20050;-68
2023/12/09 06:05:40;;;;;;;108.45;42.35;;;;;;;;;;5009520;28;20129;-71
2023/12/09 06:08:06;;;;;;;112.63;41.60;;;;;;;;;;5005070;28;20616;-69
2023/12/09 06:10:33;;;;;;;94.82;38.22;;;;;;;;;;5004221;28;20211;-68
2023/12/09 06:12:59;;;;;;;115.40;42.65;;;;;;;;;;5008311;28;20058;-71
2023/12/09 06:15:26;;;;;;;94.55;36.72;;;;;;;;;;5007343;28;20049;-68
2023/12/09 06:17:52;;;;;;;90.07;35.40;;;;;;;;;;5007947;28;20042;-70
2023/12/09 06:20:19;;;;;;;92.85;36.38;;;;;;;;;;5007483;28;20049;-68
2023/12/09 06:22:45;;;;;;;92.85;40.28;;;;;;;;;;5007607;28;20125;-68
2023/12/09 06:25:12;;;;;;;87.40;36.65;;;;;;;;;;5007302;28;20046;-68
2023/12/09 06:27:38;;;;;;;95.72;37.95;;;;;;;;;;5008524;28;20046;-68
2023/12/09 06:30:05;;;;;;;95.80;39.17;;;;;;;;;;5009378;28;20093;-70
2023/12/09 06:32:32;;;;;;;100.72;39.47;;;;;;;;;;5012302;28;20069;-68
2023/12/09 06:34:58;;;;;;;84.75;36.42;;;;;;;;;;5011394;28;20058;-69
2023/12/09 06:37:25;;;;;;;99.75;39.15;;;;;;;;;;4999417;28;20042;-70
2023/12/09 06:39:51;;;;;;;92.50;36.75;;;;;;;;;;5011654;28;20279;-68
2023/12/09 06:42:17;;;;;;;92.72;37.45;;;;;;;;;;5012150;28;20097;-69
2023/12/09 06:44:44;;;;;;;90.95;37.10;;;;;;;;;;5012272;28;20096;-68
2023/12/09 06:47:10;;;;;;;95.55;40.03;;;;;;;;;;5009594;28;20081;-68
2023/12/09 06:49:37;;;;;;;89.60;38.13;;;;;;;;;;5011253;28;20050;-69
2023/12/09 06:52:04;;;;;;;87.78;38.15;;;;;;;;;;5011917;28;20085;-68
2023/12/09 06:54:31;;;;;;;95.47;40.85;;;;;;;;;;5012583;28;20084;-70
2023/12/09 06:56:57;;;;;;;91.65;36.05;;;;;;;;;;5011151;28;20054;-70
2023/12/09 06:59:25;;;;;;;100.20;38.88;;;;;;;;;;5011157;28;20081;-68
2023/12/09 07:01:55;;;;;;;101.82;37.13;;;;;;;;;;5009727;28;20442;-68
2023/12/09 07:04:21;;;;;;;94.43;37.97;;;;;;;;;;5011445;28;20042;-69
2023/12/09 07:06:48;;;;;;;94.63;37.55;;;;;;;;;;5009989;28;20046;-68
2023/12/09 07:09:14;;;;;;;95.60;36.97;;;;;;;;;;5008892;28;20046;-68
2023/12/09 07:11:41;;;;;;;108.93;38.05;;;;;;;;;;5010587;28;20068;-67
2023/12/09 07:14:09;;;;;;;94.03;36.63;;;;;;;;;;5011080;28;20493;-69
2023/12/09 07:16:35;;;;;;;89.75;34.88;;;;;;;;;;5010540;28;20050;-68
2023/12/09 07:19:02;;;;;;;98.57;38.50;;;;;;;;;;5010732;28;20163;-68
2023/12/09 07:21:29;;;;;;;100.95;38.95;;;;;;;;;;5010765;28;20056;-68
2023/12/09 07:23:55;;;;;;;99.78;38.58;;;;;;;;;;5010669;28;20133;-71
2023/12/09 07:26:22;;;;;;;106.90;38.13;;;;;;;;;;5010287;28;20120;-69
2023/12/09 07:28:49;;;;;;;98.20;38.45;;;;;;;;;;5010605;28;20050;-70
2023/12/09 07:31:15;;;;;;;94.75;35.83;;;;;;;;;;5009883;28;20418;-70
2023/12/09 07:33:42;;;;;;;97.03;37.00;;;;;;;;;;5009379;28;20499;-70
2023/12/09 07:36:09;;;;;;;87.22;37.55;;;;;;;;;;5009084;28;20046;-69
2023/12/09 07:38:35;;;;;;;90.28;35.70;;;;;;;;;;5005007;28;20204;-69
2023/12/09 07:41:02;;;;;;;83.35;35.75;;;;;;;;;;5009726;28;20454;-68
2023/12/09 07:43:28;;;;;;;82.68;33.28;;;;;;;;;;5010583;28;20510;-71
2023/12/09 07:45:55;;;;;;;77.90;34.05;;;;;;;;;;5010313;28;20046;-69
2023/12/09 07:48:22;;;;;;;90.40;33.85;;;;;;;;;;5010038;28;20096;-69
2023/12/09 07:50:48;;;;;;;83.70;33.25;;;;;;;;;;5010007;28;20100;-70
2023/12/09 07:53:15;;;;;;;81.00;31.88;;;;;;;;;;5010316;28;20073;-68
2023/12/09 07:55:41;;;;;;;84.78;33.88;;;;;;;;;;5009563;28;20120;-68
2023/12/09 07:58:08;;;;;;;76.45;32.13;;;;;;;;;;5010410;28;20457;-68
2023/12/09 08:00:35;;;;;;;71.82;30.27;;;;;;;;;;5009299;28;20100;-67
2023/12/09 08:03:02;;;;;;;78.60;30.83;;;;;;;;;;5009121;28;20045;-68
2023/12/09 08:05:29;;;;;;;67.43;28.23;;;;;;;;;;5009859;28;20050;-68
2023/12/09 08:07:55;;;;;;;69.50;30.02;;;;;;;;;;5009996;28;20045;-72
2023/12/09 08:10:22;;;;;;;69.18;29.75;;;;;;;;;;5009738;28;20069;-68
2023/12/09 08:12:48;;;;;;;63.83;28.75;;;;;;;;;;5009812;28;20041;-67
2023/12/09 08:15:15;;;;;;;67.90;29.55;;;;;;;;;;5009510;28;20132;-69
2023/12/09 08:17:41;;;;;;;62.83;27.98;;;;;;;;;;5009491;28;20050;-69
2023/12/09 08:20:08;;;;;;;66.70;26.83;;;;;;;;;;5009849;28;20129;-68
2023/12/09 08:22:36;;;;;;;65.78;29.45;;;;;;;;;;5009420;28;20042;-70
2023/12/09 08:25:03;;;;;;;64.25;28.10;;;;;;;;;;5009584;28;20058;-68
2023/12/09 08:27:30;;;;;;;59.03;28.00;;;;;;;;;;5009243;28;20053;-68
2023/12/09 08:29:56;;;;;;;60.58;28.60;;;;;;;;;;5009667;28;20057;-73
2023/12/09 08:32:23;;;;;;;58.42;28.13;;;;;;;;;;5009410;28;20513;-67
2023/12/09 08:34:50;;;;;;;61.40;26.25;;;;;;;;;;5008778;28;20498;-68
2023/12/09 08:37:28;;;;;;;59.90;27.30;;;;;;;;;;5005840;28;20050;-68
2023/12/09 08:39:55;;;;;;;55.47;25.67;;;;;;;;;;5009253;28;20077;-69
2023/12/09 08:42:21;;;;;;;60.30;27.00;;;;;;;;;;5009218;28;20683;-69
2023/12/09 08:44:48;;;;;;;55.75;27.30;;;;;;;;;;5009313;28;20081;-68
2023/12/09 08:47:15;;;;;;;59.13;26.67;;;;;;;;;;5009145;28;20084;-68
2023/12/09 08:49:43;;;;;;;57.70;26.35;;;;;;;;;;5010265;28;20112;-70
2023/12/09 08:52:10;;;;;;;61.70;26.45;;;;;;;;;;5009184;28;20128;-68
2023/12/09 08:54:36;;;;;;;52.75;24.35;;;;;;;;;;5008971;28;20404;-69
2023/12/09 08:57:03;;;;;;;56.47;25.75;;;;;;;;;;5008387;28;20053;-69
2023/12/09 08:59:29;;;;;;;58.85;27.75;;;;;;;;;;5008985;28;20753;-69
2023/12/09 09:01:56;;;;;;;57.55;26.15;;;;;;;;;;5008414;28;20053;-70
2023/12/09 09:04:22;;;;;;;54.72;25.92;;;;;;;;;;5009354;28;20487;-69
2023/12/09 09:06:49;;;;;;;59.28;25.25;;;;;;;;;;5007171;28;20073;-70
2023/12/09 09:09:15;;;;;;;53.10;24.17;;;;;;;;;;5009073;28;20057;-68
2023/12/09 09:11:45;;;;;;;55.88;25.27;;;;;;;;;;5007291;28;20529;-70
2023/12/09 09:14:11;;;;;;;49.20;23.15;;;;;;;;;;5009227;28;20058;-70
2023/12/09 09:16:38;;;;;;;49.05;22.65;;;;;;;;;;5008250;28;20554;-70
2023/12/09 09:19:05;;;;;;;61.65;25.48;;;;;;;;;;5004870;28;20050;-71
2023/12/09 09:21:32;;;;;;;57.58;26.30;;;;;;;;;;5008624;28;20057;-67
2023/12/09 09:23:59;;;;;;;55.13;25.98;;;;;;;;;;5008799;28;20046;-68
2023/12/09 09:26:25;;;;;;;54.80;25.27;;;;;;;;;;5008518;28;20050;-68
2023/12/09 09:28:52;;;;;;;47.47;25.08;;;;;;;;;;4993837;28;20057;-71
2023/12/09 09:31:19;;;;;;;54.05;24.33;;;;;;;;;;5008289;28;20058;-68
2023/12/09 09:33:45;;;;;;;59.58;26.40;;;;;;;;;;5009268;28;20050;-72
2023/12/09 09:36:12;;;;;;;62.50;26.73;;;;;;;;;;5007886;28;20096;-68
2023/12/09 09:38:38;;;;;;;52.03;23.55;;;;;;;;;;5004208;28;20133;-68
2023/12/09 09:41:08;;;;;;;51.63;23.15;;;;;;;;;;5008519;28;20668;-67
2023/12/09 09:43:36;;;;;;;64.25;24.65;;;;;;;;;;5008761;28;20045;-67
2023/12/09 09:46:07;;;;;;;61.05;25.70;;;;;;;;;;5009009;28;20399;-68
2023/12/09 09:48:36;;;;;;;51.55;24.80;;;;;;;;;;5009114;28;20054;-69
2023/12/09 09:51:03;;;;;;;48.53;22.75;;;;;;;;;;5009157;28;20052;-70
2023/12/09 09:53:34;;;;;;;49.00;22.85;;;;;;;;;;5008322;28;20050;-67
2023/12/09 09:56:01;;;;;;;49.05;23.02;;;;;;;;;;5007857;28;20077;-70
2023/12/09 09:58:27;;;;;;;48.50;21.60;;;;;;;;;;5008340;28;20054;-69
2023/12/09 10:00:56;;;;;;;52.00;23.35;;;;;;;;;;5009857;28;20080;-70
2023/12/09 10:03:23;;;;;;;54.53;25.35;;;;;;;;;;5008492;28;20081;-70
2023/12/09 10:05:51;;;;;;;52.47;25.75;;;;;;;;;;5007671;28;20053;-71
2023/12/09 10:08:17;;;;;;;53.95;23.50;;;;;;;;;;5006955;28;20049;-69
2023/12/09 10:10:44;;;;;;;54.92;22.52;;;;;;;;;;5008468;28;20062;-74
2023/12/09 10:13:11;;;;;;;51.13;21.45;;;;;;;;;;5009348;28;20306;-70
2023/12/09 10:15:37;;;;;;;55.70;25.02;;;;;;;;;;5009200;28;20096;-71
2023/12/09 10:18:04;;;;;;;48.45;23.05;;;;;;;;;;5008027;28;20111;-69
2023/12/09 10:20:33;;;;;;;48.38;21.23;;;;;;;;;;5008022;28;20050;-70
2023/12/09 10:23:00;;;;;;;48.90;22.15;;;;;;;;;;5007598;28;20069;-71
2023/12/09 10:25:27;;;;;;;46.83;22.83;;;;;;;;;;5007610;28;20045;-71
2023/12/09 10:27:56;;;;;;;48.78;22.85;;;;;;;;;;5007358;28;20480;-71
2023/12/09 10:30:22;;;;;;;47.83;22.67;;;;;;;;;;5007762;28;20103;-70
2023/12/09 10:32:48;;;;;;;46.55;23.23;;;;;;;;;;5008384;28;20046;-69
2023/12/09 10:35:16;;;;;;;39.80;20.63;;;;;;;;;;5007120;28;20069;-69
2023/12/09 10:37:43;;;;;;;47.60;20.88;;;;;;;;;;5005794;28;20058;-72
2023/12/09 10:40:10;;;;;;;50.55;23.38;;;;;;;;;;5006656;28;20058;-70
2023/12/09 10:42:37;;;;;;;46.65;22.95;;;;;;;;;;5008061;28;20057;-71
2023/12/09 10:45:04;;;;;;;53.55;24.50;;;;;;;;;;5007299;28;20045;-70
2023/12/09 10:47:31;;;;;;;39.63;20.20;;;;;;;;;;5006943;28;20058;-73
2023/12/09 10:49:58;;;;;;;42.60;20.73;;;;;;;;;;5007927;28;20120;-71
2023/12/09 10:52:24;;;;;;;50.25;22.45;;;;;;;;;;5006419;28;20148;-70
2023/12/09 10:54:51;;;;;;;46.80;20.98;;;;;;;;;;5007999;28;20046;-70
2023/12/09 10:57:18;;;;;;;43.85;21.65;;;;;;;;;;5007203;28;20558;-70
2023/12/09 10:59:45;;;;;;;40.47;20.40;;;;;;;;;;5008043;28;20139;-71
2023/12/09 11:02:13;;;;;;;46.30;21.30;;;;;;;;;;5007244;28;20137;-68
2023/12/09 11:04:40;;;;;;;40.78;20.98;;;;;;;;;;5007572;28;20046;-68
2023/12/09 11:07:08;;;;;;;40.20;19.83;;;;;;;;;;5006500;28;20084;-69
2023/12/09 11:09:34;;;;;;;38.90;19.98;;;;;;;;;;5006394;28;20096;-68
2023/12/09 11:12:01;;;;;;;42.42;19.88;;;;;;;;;;5006926;28;20125;-69
2023/12/09 11:14:27;;;;;;;44.17;20.10;;;;;;;;;;5007191;28;20042;-72
2023/12/09 11:16:57;;;;;;;60.03;22.67;;;;;;;;;;5009274;28;20115;-70
2023/12/09 11:19:24;;;;;;;35.00;19.17;;;;;;;;;;5010356;28;20128;-69
2023/12/09 11:21:51;;;;;;;41.03;20.65;;;;;;;;;;5010512;28;20046;-68
2023/12/09 11:24:18;;;;;;;42.65;20.60;;;;;;;;;;5010712;28;20053;-68
2023/12/09 11:26:45;;;;;;;37.05;19.10;;;;;;;;;;5010633;28;20053;-70
2023/12/09 11:29:14;;;;;;;31.63;17.15;;;;;;;;;;5010450;28;20046;-70
2023/12/09 11:31:46;;;;;;;39.17;19.25;;;;;;;;;;5010699;28;20053;-70
2023/12/09 11:34:16;;;;;;;35.58;16.77;;;;;;;;;;5010822;28;20046;-70
2023/12/09 11:36:44;;;;;;;33.40;16.90;;;;;;;;;;5006065;28;20066;-71
2023/12/09 11:39:12;;;;;;;34.50;16.83;;;;;;;;;;5009410;28;20088;-68
2023/12/09 11:41:40;;;;;;;36.00;16.65;;;;;;;;;;5005725;28;20136;-69
2023/12/09 11:44:07;;;;;;;35.67;17.17;;;;;;;;;;5007218;28;20074;-69
2023/12/09 11:46:35;;;;;;;28.42;15.45;;;;;;;;;;5010350;28;20697;-69
2023/12/09 11:49:02;;;;;;;32.63;16.38;;;;;;;;;;5010121;28;20128;-71
2023/12/09 11:51:30;;;;;;;34.03;16.73;;;;;;;;;;5010012;28;20489;-70
2023/12/09 11:54:00;;;;;;;30.15;16.00;;;;;;;;;;5010146;28;20049;-72
2023/12/09 11:56:27;;;;;;;29.67;15.13;;;;;;;;;;5011190;28;20397;-71
2023/12/09 11:58:54;;;;;;;31.90;15.48;;;;;;;;;;5011349;28;20042;-70
2023/12/09 12:01:21;;;;;;;31.08;16.20;;;;;;;;;;5009607;28;20450;-70
2023/12/09 12:03:48;;;;;;;30.30;15.68;;;;;;;;;;5010024;28;20108;-70
2023/12/09 12:06:18;;;;;;;31.75;16.45;;;;;;;;;;5005233;28;20057;-69
2023/12/09 12:08:49;;;;;;;28.25;15.15;;;;;;;;;;5005710;28;20053;-70
2023/12/09 12:11:16;;;;;;;29.77;14.45;;;;;;;;;;5003756;28;20133;-70
2023/12/09 12:13:43;;;;;;;30.08;15.07;;;;;;;;;;5009655;28;20074;-73
2023/12/09 12:16:10;;;;;;;24.90;13.45;;;;;;;;;;5009381;28;20046;-70
2023/12/09 12:18:37;;;;;;;30.17;13.95;;;;;;;;;;5009438;28;20132;-69
2023/12/09 12:21:06;;;;;;;23.38;12.60;;;;;;;;;;5010077;28;20046;-71
2023/12/09 12:23:33;;;;;;;24.67;12.90;;;;;;;;;;5009693;28;20108;-73
2023/12/09 12:26:00;;;;;;;27.73;13.85;;;;;;;;;;5007138;28;20457;-71
2023/12/09 12:28:27;;;;;;;28.02;13.35;;;;;;;;;;5008280;28;20103;-70
2023/12/09 12:30:54;;;;;;;27.38;13.13;;;;;;;;;;5005550;28;20046;-72
2023/12/09 12:33:24;;;;;;;25.92;14.23;;;;;;;;;;5009645;28;20080;-66
2023/12/09 12:35:54;;;;;;;25.85;14.98;;;;;;;;;;5008937;28;20057;-70
2023/12/09 12:38:22;;;;;;;31.42;13.65;;;;;;;;;;5008609;28;20054;-67
2023/12/09 12:40:49;;;;;;;22.75;12.60;;;;;;;;;;5006640;28;20073;-67
2023/12/09 12:43:16;;;;;;;22.83;11.90;;;;;;;;;;5008401;28;20068;-68
2023/12/09 12:45:46;;;;;;;23.23;12.48;;;;;;;;;;5009195;28;20103;-68
2023/12/09 12:48:13;;;;;;;25.15;12.68;;;;;;;;;;5008787;28;20584;-68
2023/12/09 12:50:40;;;;;;;23.70;12.35;;;;;;;;;;5008220;28;20045;-73
2023/12/09 12:53:07;;;;;;;21.27;11.27;;;;;;;;;;5009058;28;20046;-70
2023/12/09 12:55:34;;;;;;;24.95;11.38;;;;;;;;;;5006496;28;20608;-75
2023/12/09 12:58:00;;;;;;;28.52;12.70;;;;;;;;;;5008548;28;20050;-75
2023/12/09 13:00:30;;;;;;;26.23;11.75;;;;;;;;;;5006841;28;20050;-74
2023/12/09 13:02:57;;;;;;;21.13;10.85;;;;;;;;;;5008684;28;20398;-71
2023/12/09 13:05:24;;;;;;;22.05;10.85;;;;;;;;;;5007257;28;20073;-75
2023/12/09 13:07:51;;;;;;;20.77;11.07;;;;;;;;;;5009307;28;20062;-67
2023/12/09 13:10:17;;;;;;;24.92;11.13;;;;;;;;;;5008322;28;20080;-65
2023/12/09 13:12:44;;;;;;;21.98;12.10;;;;;;;;;;5007295;28;20062;-70
2023/12/09 13:15:11;;;;;;;20.17;11.20;;;;;;;;;;5005354;28;20042;-71
2023/12/09 13:17:38;;;;;;;20.15;10.45;;;;;;;;;;5020757;28;20487;-73
2023/12/09 13:20:06;;;;;;;18.70;9.73;;;;;;;;;;5006714;28;20514;-72
2023/12/09 13:22:33;;;;;;;15.75;9.07;;;;;;;;;;5007257;28;20332;-70
2023/12/09 13:24:59;;;;;;;16.00;8.57;;;;;;;;;;5007360;28;20641;-68
2023/12/09 13:27:26;;;;;;;13.40;8.10;;;;;;;;;;5006466;28;20490;-72
2023/12/09 13:29:53;;;;;;;15.65;7.10;;;;;;;;;;5006200;28;20129;-70
2023/12/09 13:32:19;;;;;;;19.90;9.23;;;;;;;;;;5007451;28;20050;-66
2023/12/09 13:34:46;;;;;;;15.35;7.95;;;;;;;;;;5007925;28;20046;-69
2023/12/09 13:37:13;;;;;;;16.20;7.32;;;;;;;;;;5008373;28;20049;-71
2023/12/09 13:39:39;;;;;;;11.73;6.53;;;;;;;;;;5009412;28;20050;-72
2023/12/09 13:42:06;;;;;;;12.90;7.78;;;;;;;;;;5008309;28;20137;-76
2023/12/09 13:44:32;;;;;;;18.05;8.65;;;;;;;;;;5010023;28;20049;-73
2023/12/09 13:46:59;;;;;;;19.60;10.70;;;;;;;;;;5002062;28;20505;-69
2023/12/09 13:49:26;;;;;;;24.40;12.63;;;;;;;;;;5007252;28;20104;-77
2023/12/09 13:51:52;;;;;;;18.90;10.23;;;;;;;;;;5006408;28;20049;-77
2023/12/09 13:54:22;;;;;;;20.77;10.30;;;;;;;;;;5007212;28;20053;-68
2023/12/09 13:56:49;;;;;;;20.67;9.00;;;;;;;;;;5006017;28;20123;-70
2023/12/09 13:59:16;;;;;;;20.40;8.65;;;;;;;;;;5008818;28;20060;-70
2023/12/09 14:01:43;;;;;;;13.70;7.68;;;;;;;;;;5007755;28;20039;-71
2023/12/09 14:04:09;;;;;;;16.90;8.02;;;;;;;;;;5007301;28;20054;-67
2023/12/09 14:06:36;;;;;;;16.52;7.90;;;;;;;;;;5009003;28;20038;-76
2023/12/09 14:09:02;;;;;;;18.20;7.10;;;;;;;;;;5008217;28;20046;-68
2023/12/09 14:11:31;;;;;;;15.82;8.68;;;;;;;;;;5007549;28;20120;-72
2023/12/09 14:13:57;;;;;;;13.25;7.50;;;;;;;;;;5007309;28;20058;-75